Time;durP1;ratioP1;P1;durP2;ratioP2;P2;SDS_P1;SDS_P2;PMS_P1;PMS_P2;Temp;Humidity;BMP_temperature;BMP_pressure;BME280_temperature;BME280_humidity;BME280_pressure;Samples;Min_cycle;Max_cycle;Signal;HPM_P1;HPM_P2
2022/06/15 00:01:28;;;;;;;22.65;12.60;;;10.00;76.10;;;;;;5074806;28;20076;-23
2022/06/15 00:03:54;;;;;;;14.52;9.88;;;10.00;93.40;;;;;;5073841;28;20051;-24
2022/06/15 00:06:25;;;;;;;15.73;10.65;;;10.00;98.00;;;;;;5074671;28;20364;-24
2022/06/15 00:08:54;;;;;;;18.83;11.88;;;9.80;99.90;;;;;;5074046;28;20502;-24
2022/06/15 00:11:29;;;;;;;14.95;11.25;;;9.80;99.90;;;;;;5074040;28;20044;-24
2022/06/15 00:13:57;;;;;;;16.60;11.45;;;9.80;99.90;;;;;;5074029;28;20051;-24
2022/06/15 00:16:23;;;;;;;25.25;12.63;;;9.80;99.90;;;;;;5073992;28;20412;-24
2022/06/15 00:18:49;;;;;;;19.63;13.32;;;9.70;99.90;;;;;;5074576;28;20131;-24
2022/06/15 00:21:16;;;;;;;29.35;15.13;;;9.70;99.90;;;;;;5072843;28;20123;-24
2022/06/15 00:23:43;;;;;;;33.45;17.33;;;9.80;99.90;;;;;;5073596;28;20056;-24
2022/06/15 00:26:11;;;;;;;24.20;15.70;;;9.90;99.90;;;;;;5072498;28;20052;-24
2022/06/15 00:28:36;;;;;;;21.88;15.82;;;9.90;99.90;;;;;;5074411;28;20051;-24
2022/06/15 00:31:03;;;;;;;26.60;16.40;;;9.80;99.90;;;;;;5073875;28;20048;-24
2022/06/15 00:33:29;;;;;;;24.25;13.13;;;9.80;99.90;;;;;;5074109;28;20056;-24
2022/06/15 00:35:59;;;;;;;24.83;13.82;;;9.70;99.90;;;;;;5073822;28;20372;-24
2022/06/15 00:38:40;;;;;;;23.23;13.48;;;9.70;99.90;;;;;;5073874;28;20071;-24
2022/06/15 00:41:08;;;;;;;23.75;14.35;;;9.70;99.90;;;;;;5073367;28;20411;-24
2022/06/15 00:43:36;;;;;;;38.83;19.45;;;9.70;99.90;;;;;;5073607;28;20115;-24
2022/06/15 00:46:15;;;;;;;37.25;19.25;;;9.70;99.90;;;;;;5073683;28;20080;-24
2022/06/15 00:48:43;;;;;;;30.58;17.85;;;9.70;99.90;;;;;;5074524;28;20129;-24
2022/06/15 00:51:09;;;;;;;35.75;20.88;;;9.70;99.90;;;;;;5073587;28;20040;-24
2022/06/15 00:53:35;;;;;;;35.92;20.60;;;9.70;99.90;;;;;;5073559;28;20040;-23
2022/06/15 00:56:02;;;;;;;30.48;20.40;;;9.70;99.90;;;;;;5073523;28;20058;-24
2022/06/15 00:58:28;;;;;;;38.00;21.10;;;9.80;99.90;;;;;;5073521;28;20044;-24
2022/06/15 01:00:56;;;;;;;32.75;20.55;;;9.80;99.90;;;;;;5073516;28;20044;-24
2022/06/15 01:03:22;;;;;;;33.63;21.83;;;9.80;99.90;;;;;;5072103;28;20471;-24
2022/06/15 01:06:01;;;;;;;28.27;18.63;;;9.80;99.90;;;;;;5073469;28;20094;-24
2022/06/15 01:08:41;;;;;;;31.75;17.83;;;9.80;99.90;;;;;;5072427;28;20048;-24
2022/06/15 01:11:08;;;;;;;23.08;15.15;;;9.80;99.90;;;;;;5074112;28;20048;-24
2022/06/15 01:13:56;;;;;;;29.77;16.40;;;9.80;99.90;;;;;;5072164;28;20047;-24
2022/06/15 01:16:40;;;;;;;38.85;20.35;;;9.70;1.00;;;;;;5072493;28;20055;-24
2022/06/15 01:19:24;;;;;;;4.93;3.97;;;9.70;1.00;;;;;;5072119;28;20059;-24
2022/06/15 01:21:54;;;;;;;266.23;9.20;;;9.50;99.90;;;;;;5073558;28;20052;-24
2022/06/15 01:24:32;;;;;;;7.28;3.13;;;9.20;99.90;;;;;;5073887;28;20062;-24
2022/06/15 01:27:22;;;;;;;4.45;2.60;;;9.00;99.90;;;;;;5073311;28;20052;-24
2022/06/15 01:30:25;;;;;;;86.03;4.57;;;8.80;99.90;;;;;;5072020;28;20494;-24
2022/06/15 01:33:06;;;;;;;7.20;1.75;;;8.50;99.90;;;;;;5069711;28;20059;-24
2022/06/15 01:36:02;;;;;;;4.38;2.17;;;8.40;99.90;;;;;;5073191;28;20119;-24
2022/06/15 01:38:49;;;;;;;8.18;3.40;;;8.20;99.90;;;;;;5066476;28;20060;-24
2022/06/15 01:41:21;;;;;;;5.35;2.45;;;8.10;99.90;;;;;;5077604;28;20394;-24
2022/06/15 01:44:02;;;;;;;4.32;2.95;;;8.00;99.90;;;;;;5059056;28;20041;-24
2022/06/15 01:46:29;;;;;;;5.40;3.72;;;7.90;99.90;;;;;;5076889;28;20048;-23
2022/06/15 01:48:56;;;;;;;3.47;3.17;;;7.90;99.90;;;;;;5076786;28;20043;-24
2022/06/15 01:51:30;;;;;;;3.88;3.17;;;7.90;99.90;;;;;;5076763;28;20044;-24
2022/06/15 01:54:08;;;;;;;58.90;4.57;;;7.80;99.90;;;;;;5076317;28;20057;-24
2022/06/15 01:56:40;;;;;;;194.50;11.15;;;7.80;99.90;;;;;;5076960;28;20048;-24
2022/06/15 01:59:43;;;;;;;359.05;14.55;;;7.70;99.90;;;;;;5077485;28;20094;-23
2022/06/15 02:02:32;;;;;;;94.20;6.70;;;7.80;99.90;;;;;;5077066;28;20439;-23
2022/06/15 02:05:00;;;;;;;30.80;3.47;;;7.70;99.90;;;;;;5059424;28;20040;-23
2022/06/15 02:07:49;;;;;;;4.80;3.92;;;7.60;99.90;;;;;;5077253;28;20178;-23
2022/06/15 02:10:28;;;;;;;3.55;2.95;;;7.50;99.90;;;;;;5076686;28;20051;-24
2022/06/15 02:12:54;;;;;;;4.90;4.05;;;7.50;99.90;;;;;;5076492;28;20052;-24
2022/06/15 02:15:25;;;;;;;7.35;5.35;;;7.40;99.90;;;;;;5077107;28;20044;-23
2022/06/15 02:17:52;;;;;;;22.00;13.18;;;7.40;99.90;;;;;;5075652;28;20390;-23
2022/06/15 02:20:24;;;;;;;21.23;12.70;;;7.50;99.90;;;;;;5076073;28;20063;-23
2022/06/15 02:22:51;;;;;;;13.57;8.82;;;7.60;99.90;;;;;;5076084;28;20102;-24
2022/06/15 02:25:22;;;;;;;4.15;2.50;;;7.60;99.90;;;;;;5075194;28;20048;-23
2022/06/15 02:27:50;;;;;;;5.40;4.82;;;7.50;99.90;;;;;;5076197;28;20040;-23
2022/06/15 02:30:22;;;;;;;4.70;3.50;;;7.50;99.90;;;;;;5076080;28;20468;-23
2022/06/15 02:32:49;;;;;;;6.50;4.82;;;7.50;99.90;;;;;;5075891;28;20048;-23
2022/06/15 02:35:17;;;;;;;4.97;4.07;;;7.60;1.00;;;;;;5076038;28;20040;-23
2022/06/15 02:37:44;;;;;;;9.32;6.80;;;7.70;1.00;;;;;;5074663;28;20059;-24
2022/06/15 02:40:14;;;;;;;9.65;6.65;;;7.80;1.00;;;;;;5075162;28;20051;-24
2022/06/15 02:42:44;;;;;;;10.82;5.10;;;7.90;1.00;;;;;;5075751;28;20041;-24
2022/06/15 02:45:34;;;;;;;6.13;4.13;;;8.10;1.00;;;;;;5076448;28;20110;-24
2022/06/15 02:48:03;;;;;;;8.52;7.38;;;8.20;1.00;;;;;;5075624;28;20378;-24
2022/06/15 02:50:35;;;;;;;7.55;5.35;;;8.20;1.00;;;;;;5075670;28;20052;-24
2022/06/15 02:53:06;;;;;;;7.28;6.40;;;8.30;1.00;;;;;;5075954;28;20072;-24
2022/06/15 02:55:33;;;;;;;7.00;6.03;;;8.30;1.00;;;;;;5074597;28;20057;-24
2022/06/15 02:58:12;;;;;;;9.48;6.88;;;8.40;1.00;;;;;;5075852;28;20128;-24
2022/06/15 03:00:38;;;;;;;14.23;10.60;;;8.50;1.00;;;;;;5075566;28;20048;-24
2022/06/15 03:03:04;;;;;;;21.05;12.05;;;8.60;7.80;;;;;;5075368;28;20044;-24
2022/06/15 03:05:30;;;;;;;14.80;11.85;;;8.80;53.70;;;;;;5074398;28;20040;-24
2022/06/15 03:07:57;;;;;;;23.42;14.40;;;9.00;92.00;;;;;;5075410;28;20044;-24
2022/06/15 03:10:23;;;;;;;19.55;13.65;;;9.10;99.90;;;;;;5074048;28;20045;-24
2022/06/15 03:12:49;;;;;;;14.07;10.88;;;9.30;99.90;;;;;;5074791;28;20367;-24
2022/06/15 03:15:15;;;;;;;15.70;10.27;;;9.50;99.90;;;;;;5075771;28;20052;-24
2022/06/15 03:17:41;;;;;;;14.57;11.68;;;9.50;99.90;;;;;;5075403;28;20047;-24
2022/06/15 03:20:08;;;;;;;17.88;12.60;;;9.50;99.90;;;;;;5075649;28;20044;-24
2022/06/15 03:22:35;;;;;;;21.33;14.30;;;9.70;99.90;;;;;;5074693;28;20056;-24
2022/06/15 03:25:01;;;;;;;14.13;9.57;;;9.70;99.90;;;;;;5075000;28;20482;-24
2022/06/15 03:27:27;;;;;;;13.13;8.40;;;9.80;99.90;;;;;;5074917;28;20509;-24
2022/06/15 03:29:53;;;;;;;15.70;7.70;;;9.70;99.90;;;;;;5075142;28;20049;-24
2022/06/15 03:32:19;;;;;;;13.13;8.38;;;9.50;99.90;;;;;;5057475;28;20475;-24
2022/06/15 03:34:45;;;;;;;15.35;9.77;;;9.40;99.90;;;;;;5074795;28;20052;-24
2022/06/15 03:37:11;;;;;;;13.05;10.00;;;9.40;99.90;;;;;;5075553;28;20119;-24
2022/06/15 03:39:37;;;;;;;20.40;11.18;;;9.50;99.90;;;;;;5074688;28;20562;-24
2022/06/15 03:42:17;;;;;;;14.07;10.45;;;9.50;99.90;;;;;;5075366;28;20048;-24
2022/06/15 03:44:44;;;;;;;15.75;11.70;;;9.60;99.90;;;;;;5074562;28;20044;-24
2022/06/15 03:47:19;;;;;;;25.52;15.45;;;9.70;99.90;;;;;;5074583;28;20402;-24
2022/06/15 03:49:49;;;;;;;16.83;9.68;;;9.80;99.90;;;;;;5074519;28;20040;-24
2022/06/15 03:52:16;;;;;;;19.92;11.32;;;9.80;99.90;;;;;;5074495;28;20044;-24
2022/06/15 03:54:42;;;;;;;24.27;13.52;;;9.70;99.90;;;;;;5074379;28;20087;-24
2022/06/15 03:57:11;;;;;;;18.42;12.52;;;9.70;99.90;;;;;;5073419;28;20076;-24
2022/06/15 03:59:37;;;;;;;17.85;12.32;;;9.60;99.90;;;;;;5074327;28;20083;-24
2022/06/15 04:02:03;;;;;;;20.73;14.32;;;9.70;99.90;;;;;;5074568;28;20080;-24
2022/06/15 04:04:28;;;;;;;20.15;14.75;;;9.80;99.90;;;;;;5074326;28;20055;-24
2022/06/15 04:06:55;;;;;;;20.42;15.50;;;9.90;99.90;;;;;;5074207;28;20044;-24
2022/06/15 04:09:21;;;;;;;21.13;14.65;;;10.00;99.90;;;;;;5074362;28;20045;-24
2022/06/15 04:12:01;;;;;;;27.25;16.45;;;10.20;99.90;;;;;;5072977;28;20044;-24
2022/06/15 04:14:31;;;;;;;16.70;14.57;;;10.30;99.90;;;;;;5073157;28;20128;-24
2022/06/15 04:16:57;;;;;;;24.60;16.00;;;10.50;99.90;;;;;;5056184;28;20139;-24
2022/06/15 04:19:26;;;;;;;22.35;16.08;;;10.70;99.90;;;;;;5073856;28;20055;-24
2022/06/15 04:21:52;;;;;;;26.85;16.63;;;10.80;99.90;;;;;;5073858;28;20044;-24
2022/06/15 04:24:19;;;;;;;24.08;16.58;;;10.90;99.90;;;;;;5074384;28;20129;-24
2022/06/15 04:26:46;;;;;;;23.23;15.57;;;10.90;99.90;;;;;;5073829;28;20051;-24
2022/06/15 04:29:12;;;;;;;23.20;13.80;;;11.00;99.90;;;;;;5073748;28;20048;-24
2022/06/15 04:31:38;;;;;;;23.95;14.07;;;11.10;99.90;;;;;;5073702;28;20048;-24
2022/06/15 04:34:05;;;;;;;18.45;14.38;;;11.20;99.90;;;;;;5073679;28;20059;-24
2022/06/15 04:36:31;;;;;;;22.27;13.13;;;11.40;99.90;;;;;;5074226;28;20052;-24
2022/06/15 04:38:57;;;;;;;17.42;12.90;;;11.60;99.90;;;;;;5073701;28;20041;-24
2022/06/15 04:41:23;;;;;;;19.02;11.35;;;11.70;99.90;;;;;;5073645;28;20045;-24
2022/06/15 04:43:49;;;;;;;17.45;12.10;;;12.00;99.90;;;;;;5073564;28;20393;-24
2022/06/15 04:46:15;;;;;;;19.02;11.80;;;12.10;99.90;;;;;;5072878;28;20049;-24
2022/06/15 04:48:41;;;;;;;13.15;10.27;;;12.20;99.90;;;;;;5073572;28;20040;-24
2022/06/15 04:51:20;;;;;;;12.73;9.95;;;12.50;99.90;;;;;;5073472;28;20498;-24
2022/06/15 04:53:47;;;;;;;15.18;9.65;;;12.60;99.90;;;;;;5074068;28;20079;-24
2022/06/15 04:56:12;;;;;;;16.38;8.95;;;12.70;99.90;;;;;;5073552;28;20048;-24
2022/06/15 04:58:39;;;;;;;11.38;8.60;;;12.80;99.90;;;;;;5073494;28;20482;-24
2022/06/15 05:01:07;;;;;;;14.20;7.90;;;13.00;99.90;;;;;;5073443;28;20051;-24
2022/06/15 05:03:36;;;;;;;14.13;7.85;;;13.70;99.90;;;;;;5072235;28;20517;-24
2022/06/15 05:06:29;;;;;;;15.10;6.90;;;14.50;99.90;;;;;;5073533;28;20161;-24
2022/06/15 05:08:56;;;;;;;13.95;7.80;;;15.40;1.00;;;;;;5072179;28;20082;-24
2022/06/15 05:11:21;;;;;;;8.93;6.28;;;16.30;99.90;;;;;;5072490;28;20087;-24
2022/06/15 05:13:47;;;;;;;9.23;6.40;;;16.90;99.90;;;;;;5074949;28;20083;-25
2022/06/15 05:16:13;;;;;;;9.77;4.97;;;17.50;41.50;;;;;;5077482;28;20059;-25
2022/06/15 05:18:38;;;;;;;9.73;5.07;;;17.90;99.90;;;;;;5077436;28;20041;-25
2022/06/15 05:21:04;;;;;;;10.63;5.40;;;18.10;99.90;;;;;;5077382;28;20052;-25
2022/06/15 05:23:30;;;;;;;9.75;5.55;;;18.40;66.80;;;;;;5077253;28;20065;-25
2022/06/15 05:25:58;;;;;;;9.40;4.90;;;18.70;1.00;;;;;;5077270;28;20053;-25
2022/06/15 05:28:24;;;;;;;7.10;4.80;;;19.10;1.00;;;;;;5077252;28;20048;-24
2022/06/15 05:30:49;;;;;;;7.80;4.10;;;19.40;99.90;;;;;;5076492;28;20095;-25
2022/06/15 05:33:15;;;;;;;7.30;5.07;;;19.50;99.90;;;;;;5077109;28;20044;-25
2022/06/15 05:35:41;;;;;;;10.43;5.05;;;19.40;99.90;;;;;;5077344;28;20040;-25
2022/06/15 05:38:07;;;;;;;8.45;4.60;;;19.50;99.90;;;;;;5077828;28;20040;-25
2022/06/15 05:40:33;;;;;;;10.38;4.28;;;19.70;99.90;;;;;;5076951;28;20091;-25
2022/06/15 05:42:58;;;;;;;7.68;4.00;;;20.10;99.90;;;;;;5076901;28;20041;-25
2022/06/15 05:45:24;;;;;;;6.78;3.97;;;20.40;99.90;;;;;;5076743;28;20152;-25
2022/06/15 05:47:50;;;;;;;5.47;3.70;;;20.70;99.90;;;;;;5075722;28;20394;-25
2022/06/15 05:50:15;;;;;;;7.15;4.10;;;20.90;89.20;;;;;;5075620;28;20046;-25
2022/06/15 05:52:41;;;;;;;6.32;4.05;;;20.60;77.10;;;;;;5077411;28;20075;-25
2022/06/15 05:55:08;;;;;;;7.88;4.18;;;20.00;99.90;;;;;;5076770;28;20095;-24
2022/06/15 05:57:34;;;;;;;7.78;4.20;;;19.40;99.90;;;;;;5076689;28;20056;-24
2022/06/15 06:00:03;;;;;;;7.85;4.38;;;18.90;99.90;;;;;;5075481;28;20055;-24
2022/06/15 06:02:29;;;;;;;6.80;4.65;;;18.30;99.90;;;;;;5076605;28;20044;-24
2022/06/15 06:04:55;;;;;;;11.35;5.28;;;18.00;99.90;;;;;;5076410;28;20109;-24
2022/06/15 06:07:22;;;;;;;8.90;4.43;;;17.70;99.90;;;;;;5076527;28;20107;-24
2022/06/15 06:09:48;;;;;;;8.48;4.10;;;17.60;99.90;;;;;;5076383;28;20048;-24
2022/06/15 06:12:14;;;;;;;9.40;4.20;;;17.50;1.00;;;;;;5075139;28;20059;-24
2022/06/15 06:14:40;;;;;;;8.73;4.00;;;17.40;1.00;;;;;;5076424;28;20102;-25
2022/06/15 06:17:06;;;;;;;7.57;4.30;;;17.30;1.00;;;;;;5058795;28;20557;-24
2022/06/15 06:19:32;;;;;;;8.18;3.78;;;17.20;1.00;;;;;;5075100;28;20067;-25
2022/06/15 06:21:58;;;;;;;8.85;4.65;;;17.20;1.00;;;;;;5076150;28;20482;-24
2022/06/15 06:24:23;;;;;;;4.30;3.63;;;17.10;1.00;;;;;;5076380;28;20061;-25
2022/06/15 06:26:56;;;;;;;8.10;4.70;;;17.20;1.00;;;;;;5075003;28;20046;-24
2022/06/15 06:29:22;;;;;;;9.70;4.65;;;17.30;1.00;;;;;;5077003;28;20044;-25
2022/06/15 06:31:47;;;;;;;14.15;11.90;;;17.40;1.00;;;;;;5074839;28;20394;-25
2022/06/15 06:34:13;;;;;;;9.15;6.25;;;17.60;1.00;;;;;;5074846;28;20131;-25
2022/06/15 06:36:44;;;;;;;8.63;5.05;;;17.50;1.00;;;;;;5075958;28;20547;-25
2022/06/15 06:39:17;;;;;;;10.38;4.38;;;17.50;99.90;;;;;;5074682;28;20053;-25
2022/06/15 06:41:43;;;;;;;6.60;4.10;;;17.50;1.00;;;;;;5075961;28;20036;-24
2022/06/15 06:44:11;;;;;;;8.23;4.65;;;17.60;1.00;;;;;;5075723;28;20098;-24
2022/06/15 06:46:40;;;;;;;7.60;4.30;;;17.60;1.00;;;;;;5075867;28;20106;-25
2022/06/15 06:49:06;;;;;;;7.75;4.55;;;17.70;1.00;;;;;;5075742;28;20052;-24
2022/06/15 06:51:35;;;;;;;9.93;4.35;;;17.70;1.00;;;;;;5074527;28;20045;-25
2022/06/15 06:54:01;;;;;;;7.13;3.72;;;17.80;1.00;;;;;;5076459;28;20064;-25
2022/06/15 06:56:27;;;;;;;6.32;3.67;;;17.90;99.90;;;;;;5075565;28;20048;-25
2022/06/15 06:58:53;;;;;;;7.47;3.63;;;18.00;99.90;;;;;;5057947;28;20052;-24
2022/06/15 07:01:18;;;;;;;7.47;3.08;;;18.10;99.90;;;;;;5075490;28;20043;-25
2022/06/15 07:03:44;;;;;;;6.57;3.38;;;18.10;99.90;;;;;;5075395;28;20041;-25
2022/06/15 07:06:10;;;;;;;8.82;3.60;;;18.20;99.90;;;;;;5075675;28;20110;-25
2022/06/15 07:08:39;;;;;;;9.15;3.47;;;18.50;99.90;;;;;;5074271;28;20044;-25
2022/06/15 07:11:13;;;;;;;8.50;3.65;;;19.10;99.90;;;;;;5075379;28;20067;-25
2022/06/15 07:13:39;;;;;;;4.75;2.80;;;19.70;99.90;;;;;;5075152;28;20131;-25
2022/06/15 07:16:12;;;;;;;7.82;2.80;;;20.00;99.90;;;;;;5075235;28;20147;-25
2022/06/15 07:18:38;;;;;;;;;;;19.90;99.90;;;;;;5074940;28;20109;-25
2022/06/15 07:21:07;;;;;;;6.38;2.97;;;19.70;1.00;;;;;;5073992;28;19924;-25
2022/06/15 07:23:33;;;;;;;7.15;2.95;;;19.60;99.90;;;;;;5074431;28;20522;-25
2022/06/15 07:26:06;;;;;;;7.30;2.63;;;19.80;99.90;;;;;;5075836;28;20055;-25
2022/06/15 07:28:33;;;;;;;5.45;2.53;;;20.10;25.30;;;;;;5075579;28;20051;-25
2022/06/15 07:30:59;;;;;;;5.22;1.98;;;20.20;1.00;;;;;;5074875;28;20048;-25
2022/06/15 07:33:25;;;;;;;8.95;2.58;;;20.50;1.00;;;;;;5074825;28;20086;-25
2022/06/15 07:35:51;;;;;;;4.97;2.60;;;20.90;1.00;;;;;;5072991;28;20084;-25
2022/06/15 07:38:17;;;;;;;6.85;2.50;;;21.80;1.00;;;;;;5074755;28;20075;-25
2022/06/15 07:40:43;;;;;;;6.80;3.30;;;22.70;99.90;;;;;;5074689;28;20088;-25
2022/06/15 07:43:08;;;;;;;5.45;2.38;;;23.20;99.90;;;;;;5073778;28;20080;-25
2022/06/15 07:45:34;;;;;;;6.38;2.53;;;23.10;99.90;;;;;;5074241;28;20046;-25
2022/06/15 07:50:44;;;;;;;7.90;2.28;;;22.60;99.90;;;;;;5074583;28;20077;-25
2022/06/15 07:53:13;;;;;;;10.45;2.40;;;23.20;99.90;;;;;;5074469;28;20040;-25
2022/06/15 07:55:41;;;;;;;4.40;2.10;;;23.70;99.90;;;;;;5074464;28;20505;-25
2022/06/15 07:58:08;;;;;;;3.75;2.20;;;23.80;99.90;;;;;;5074350;28;20509;-25
2022/06/15 08:00:35;;;;;;;4.15;2.20;;;23.10;99.90;;;;;;5073098;28;20049;-25
2022/06/15 08:03:01;;;;;;;6.90;2.17;;;22.90;99.90;;;;;;5074219;28;20048;-25
2022/06/15 08:05:30;;;;;;;5.70;2.65;;;23.10;99.90;;;;;;5074272;28;20045;-25
2022/06/15 08:07:56;;;;;;;6.25;3.28;;;23.10;99.90;;;;;;5073248;28;20048;-25
2022/06/15 08:10:24;;;;;;;6.35;2.55;;;23.00;99.90;;;;;;5074083;28;20059;-25
2022/06/15 08:12:50;;;;;;;7.78;2.60;;;22.60;99.90;;;;;;5074109;28;20041;-25
2022/06/15 08:15:16;;;;;;;5.13;2.03;;;22.30;99.90;;;;;;5073921;28;20048;-25
2022/06/15 08:17:49;;;;;;;6.07;2.05;;;22.30;99.90;;;;;;5074885;28;20051;-25
2022/06/15 08:20:24;;;;;;;11.93;2.70;;;22.60;99.90;;;;;;5072803;28;20131;-25
2022/06/15 08:22:53;;;;;;;7.03;2.53;;;23.00;99.90;;;;;;5073779;28;20052;-25
2022/06/15 08:25:26;;;;;;;6.07;1.95;;;23.70;99.90;;;;;;5072823;28;20044;-25
2022/06/15 08:27:54;;;;;;;8.30;2.55;;;24.30;30.70;;;;;;5073991;28;20059;-25
2022/06/15 08:30:21;;;;;;;6.10;2.40;;;24.70;16.30;;;;;;5073947;28;20050;-25
2022/06/15 08:32:48;;;;;;;3.85;1.40;;;25.00;1.00;;;;;;5073516;28;20460;-25
2022/06/15 08:35:14;;;;;;;5.15;2.10;;;25.00;1.00;;;;;;5072551;28;20473;-25
2022/06/15 08:37:40;;;;;;;5.10;2.15;;;25.10;1.00;;;;;;5072826;28;20080;-25
2022/06/15 08:40:07;;;;;;;6.05;2.22;;;24.40;1.00;;;;;;5072735;28;20045;-25
2022/06/15 08:42:53;;;;;;;7.10;2.55;;;24.20;1.00;;;;;;5074701;28;20055;-25
2022/06/15 08:45:26;;;;;;;7.05;2.40;;;24.10;1.00;;;;;;5073634;28;20052;-25
2022/06/15 08:48:11;;;;;;;7.93;2.83;;;23.50;16.10;;;;;;5072997;28;20044;-25
2022/06/15 08:50:39;;;;;;;5.88;3.00;;;22.50;99.90;;;;;;5074199;28;20422;-25
2022/06/15 08:53:50;;;;;;;4.95;2.63;;;21.80;99.90;;;;;;5073599;28;20041;-25
2022/06/15 08:56:29;;;;;;;6.63;2.70;;;21.50;99.90;;;;;;5018700;28;20128;-25
2022/06/15 08:59:03;;;;;;;7.55;2.80;;;21.40;99.90;;;;;;5051233;28;20566;-25
2022/06/15 09:01:35;;;;;;;6.90;2.75;;;21.90;99.90;;;;;;5065883;28;20048;-25
2022/06/15 09:04:22;;;;;;;5.10;2.50;;;22.20;99.90;;;;;;5073774;28;20048;-25
2022/06/15 09:07:01;;;;;;;5.82;2.50;;;22.40;99.90;;;;;;5072255;28;20052;-25
2022/06/15 09:10:00;;;;;;;5.70;2.53;;;22.40;97.40;;;;;;5074002;28;20049;-25
2022/06/15 09:12:55;;;;;;;8.45;2.63;;;21.90;99.90;;;;;;5072323;28;20052;-25
2022/06/15 09:15:26;;;;;;;5.72;2.55;;;21.50;99.90;;;;;;5073282;28;20056;-25
2022/06/15 09:17:55;;;;;;;6.22;2.38;;;21.90;99.90;;;;;;5073994;28;20068;-25
2022/06/15 09:20:42;;;;;;;5.47;2.13;;;21.70;99.90;;;;;;5073318;28;20049;-25
2022/06/15 09:23:23;;;;;;;4.60;2.25;;;21.40;99.90;;;;;;5072347;28;20190;-25
2022/06/15 09:25:57;;;;;;;7.10;2.55;;;20.90;99.90;;;;;;5073914;28;20052;-25
2022/06/15 09:28:32;;;;;;;9.57;2.42;;;20.50;99.90;;;;;;5073295;28;20040;-25
2022/06/15 09:31:05;;;;;;;7.72;3.20;;;20.20;99.90;;;;;;5072914;28;20047;-25
2022/06/15 09:33:37;;;;;;;7.53;2.97;;;20.10;99.90;;;;;;5073554;28;20051;-25
2022/06/15 09:36:17;;;;;;;6.75;2.60;;;20.00;99.90;;;;;;5072609;28;20045;-25
2022/06/15 09:38:43;;;;;;;6.72;2.63;;;20.10;99.90;;;;;;5073133;28;20132;-25
2022/06/15 09:41:35;;;;;;;5.10;2.25;;;20.10;99.90;;;;;;5073123;28;20044;-25
2022/06/15 09:44:09;;;;;;;7.10;2.28;;;20.40;99.90;;;;;;5072219;28;20123;-25
2022/06/15 09:46:42;;;;;;;6.35;2.45;;;21.30;99.90;;;;;;5073421;28;20048;-25
2022/06/15 09:49:41;;;;;;;6.55;2.42;;;22.30;99.90;;;;;;5073048;28;20060;-25
2022/06/15 09:52:34;;;;;;;5.03;2.30;;;23.30;1.00;;;;;;5073079;28;20071;-25
2022/06/15 09:55:10;;;;;;;;;;;24.10;1.00;;;;;;5074077;28;20045;-25
2022/06/15 09:57:39;;;;;;;7.50;2.08;;;24.90;1.00;;;;;;5073905;28;19974;-25
2022/06/15 10:00:10;;;;;;;8.82;2.30;;;25.50;1.00;;;;;;5075866;28;20095;-26
2022/06/15 10:02:38;;;;;;;4.88;2.03;;;26.20;1.00;;;;;;5076501;28;20132;-25
2022/06/15 10:05:07;;;;;;;5.22;2.30;;;26.70;1.00;;;;;;5058918;28;20082;-25
2022/06/15 10:07:37;;;;;;;5.82;1.88;;;26.70;99.90;;;;;;5076515;28;20068;-25
2022/06/15 10:10:23;;;;;;;10.77;2.22;;;26.90;99.90;;;;;;5076441;28;20048;-25
2022/06/15 10:13:02;;;;;;;9.02;2.72;;;27.10;99.90;;;;;;5076411;28;20048;-25
2022/06/15 10:15:57;;;;;;;5.40;2.25;;;27.10;99.90;;;;;;5077004;28;20048;-25
2022/06/15 10:18:23;;;;;;;5.32;1.92;;;26.50;99.90;;;;;;5075322;28;20106;-25
2022/06/15 10:21:16;;;;;;;3.92;2.00;;;25.70;99.90;;;;;;5076741;28;20040;-25
2022/06/15 10:24:17;;;;;;;7.22;2.15;;;25.50;99.90;;;;;;5076029;28;20048;-25
2022/06/15 10:26:49;;;;;;;4.13;1.58;;;25.10;99.90;;;;;;5076273;28;20152;-25
2022/06/15 10:29:14;;;;;;;7.15;2.05;;;24.70;99.90;;;;;;5076162;28;20052;-25
2022/06/15 10:31:43;;;;;;;4.45;2.10;;;24.30;99.90;;;;;;5076036;28;20053;-25
2022/06/15 10:34:33;;;;;;;5.63;2.53;;;24.10;99.90;;;;;;5076878;28;20074;-25
2022/06/15 10:37:20;;;;;;;5.35;2.33;;;23.80;99.90;;;;;;5076036;28;20102;-25
2022/06/15 10:39:51;;;;;;;6.80;2.58;;;24.10;99.90;;;;;;5067460;28;20064;-25
2022/06/15 10:42:21;;;;;;;4.43;2.70;;;24.60;99.90;;;;;;5075829;28;20055;-25
2022/06/15 10:45:03;;;;;;;7.20;3.38;;;24.30;99.90;;;;;;5075558;28;20502;-25
2022/06/15 10:47:49;;;;;;;6.03;2.78;;;24.00;99.90;;;;;;5075804;28;20044;-25
2022/06/15 10:50:29;;;;;;;6.57;2.97;;;23.30;99.90;;;;;;5075496;28;20482;-25
2022/06/15 10:53:22;;;;;;;7.63;2.60;;;22.80;1.00;;;;;;5076522;28;20047;-25
2022/06/15 11:02:07;;;;;;;5.95;2.75;;;22.10;1.00;;;;;;5074884;28;20123;-25
2022/06/15 11:04:55;;;;;;;5.65;2.58;;;22.40;1.00;;;;;;5058661;28;20099;-25
2022/06/15 11:07:20;;;;;;;4.40;2.30;;;23.30;99.90;;;;;;5076109;28;20045;-25
2022/06/15 11:09:55;;;;;;;6.43;2.58;;;24.00;99.90;;;;;;5074643;28;20473;-25
2022/06/15 11:12:43;;;;;;;5.35;2.70;;;24.70;99.90;;;;;;5073853;28;20037;-26
2022/06/15 11:15:20;;;;;;;5.78;2.28;;;25.50;99.90;;;;;;5074298;28;20041;-25
2022/06/15 11:18:05;;;;;;;7.95;2.80;;;25.70;99.90;;;;;;5075291;28;20110;-25
2022/06/15 11:20:43;;;;;;;5.75;2.55;;;25.10;99.90;;;;;;5075739;28;20127;-25
2022/06/15 11:23:38;;;;;;;13.63;3.72;;;24.20;99.90;;;;;;5075248;28;20061;-25
2022/06/15 11:29:37;;;;;;;8.98;2.40;;;23.20;99.90;;;;;;5075056;28;20059;-25
2022/06/15 11:32:41;;;;;;;8.00;2.65;;;23.90;99.90;;;;;;5074988;28;20047;-26
2022/06/15 11:35:13;;;;;;;7.13;3.03;;;24.80;99.90;;;;;;5066579;28;20056;-25
2022/06/15 11:37:48;;;;;;;6.57;2.75;;;25.50;99.90;;;;;;5073613;28;20056;-25
2022/06/15 11:40:35;;;;;;;10.05;2.40;;;25.90;99.90;;;;;;5073873;28;20052;-26
2022/06/15 11:43:03;;;;;;;4.70;2.20;;;26.20;99.90;;;;;;5074673;28;20508;-26
2022/06/15 11:45:56;;;;;;;4.75;1.80;;;26.40;99.90;;;;;;5074726;28;20048;-25
2022/06/15 11:48:48;;;;;;;5.97;1.98;;;26.70;99.90;;;;;;5073490;28;20058;-25
2022/06/15 11:51:44;;;;;;;6.73;3.27;;;27.20;99.90;;;;;;5074497;28;20190;-26
2022/06/15 11:54:21;;;;;;;9.32;3.22;;;27.30;99.90;;;;;;5074529;28;20737;-25
2022/06/15 11:57:25;;;;;;;6.53;2.42;;;27.30;99.90;;;;;;5073819;28;20053;-25
2022/06/15 11:59:59;;;;;;;4.93;2.38;;;27.40;99.90;;;;;;5074451;28;20049;-25
2022/06/15 12:02:36;;;;;;;5.45;2.20;;;27.00;99.90;;;;;;5074797;28;20040;-25
2022/06/15 12:05:31;;;;;;;3.95;1.95;;;26.40;99.90;;;;;;5074889;28;20052;-27
2022/06/15 12:08:20;;;;;;;4.55;2.20;;;26.10;99.90;;;;;;5074101;28;20044;-25
2022/06/15 12:12:37;;;;;;;7.00;2.30;;;25.80;99.90;;;;;;5074207;28;20470;-26
2022/06/15 12:14:21;;;;;;;5.28;2.10;;;25.30;99.90;;;;;;5074924;28;20131;-25
2022/06/15 12:16:57;;;;;;;5.65;2.53;;;24.80;99.90;;;;;;5074773;28;20084;-25
2022/06/15 12:19:51;;;;;;;7.07;2.45;;;24.50;99.90;;;;;;5073411;28;20060;-27
2022/06/15 12:22:23;;;;;;;3.17;1.55;;;24.70;99.90;;;;;;5071238;28;20417;-25
2022/06/15 12:24:53;;;;;;;5.15;2.17;;;25.20;99.90;;;;;;5074779;28;20382;-25
2022/06/15 12:27:30;;;;;;;6.32;1.63;;;25.60;99.90;;;;;;5073989;28;20094;-25
2022/06/15 12:30:07;;;;;;;5.72;2.10;;;25.60;99.90;;;;;;5074777;28;20041;-25
2022/06/15 12:33:02;;;;;;;3.70;1.90;;;25.60;99.90;;;;;;5073971;28;20051;-25
2022/06/15 12:35:44;;;;;;;6.78;2.40;;;26.20;99.90;;;;;;5063434;28;20056;-25
2022/06/15 12:38:35;;;;;;;4.18;1.63;;;26.50;99.90;;;;;;5072921;28;20494;-26
2022/06/15 12:42:09;;;;;;;4.40;1.90;;;27.00;99.90;;;;;;5073567;28;20074;-25
2022/06/15 12:43:57;;;;;;;4.03;1.98;;;27.10;99.90;;;;;;5073728;28;20048;-25
2022/06/15 12:46:24;;;;;;;5.20;2.08;;;27.10;99.90;;;;;;5073663;28;20044;-25
2022/06/15 12:48:56;;;;;;;3.72;1.42;;;27.20;99.90;;;;;;5073703;28;20053;-25
2022/06/15 12:51:43;;;;;;;4.00;1.92;;;27.10;99.90;;;;;;5074035;28;20119;-26
2022/06/15 12:54:34;;;;;;;7.40;1.98;;;26.50;99.90;;;;;;5072993;28;20060;-25
2022/06/15 12:57:03;;;;;;;7.00;1.95;;;25.90;99.90;;;;;;5073888;28;20121;-26
2022/06/15 12:59:47;;;;;;;4.78;2.03;;;25.20;99.90;;;;;;5074665;28;20375;-25
2022/06/15 13:02:42;;;;;;;4.88;1.58;;;24.60;99.90;;;;;;5074191;28;20045;-25
2022/06/15 13:05:20;;;;;;;5.25;1.90;;;24.50;99.90;;;;;;5074416;28;20072;-25
2022/06/15 13:08:11;;;;;;;4.63;1.70;;;25.00;99.90;;;;;;5073293;28;20553;-25
2022/06/15 13:10:58;;;;;;;4.68;1.65;;;25.40;99.90;;;;;;5073468;28;20052;-26
2022/06/15 13:13:33;;;;;;;3.50;1.52;;;25.40;99.90;;;;;;5072860;28;20048;-25
2022/06/15 13:16:02;;;;;;;4.60;1.52;;;24.70;99.90;;;;;;5074070;28;20037;-25
2022/06/15 13:18:42;;;;;;;3.97;2.03;;;24.80;99.90;;;;;;5074026;28;20048;-26
2022/06/15 13:21:09;;;;;;;5.10;1.67;;;24.90;99.90;;;;;;5074039;28;20044;-25
2022/06/15 13:23:40;;;;;;;2.97;1.58;;;24.50;99.90;;;;;;5073574;28;20414;-26
2022/06/15 13:26:11;;;;;;;4.22;1.63;;;24.30;99.90;;;;;;5074206;28;20057;-26
2022/06/15 13:29:19;;;;;;;5.35;1.90;;;24.00;99.90;;;;;;5073901;28;20049;-25